createdAt,value
2018-09-03T00:01:56.332Z,7.73
2018-09-03T00:04:24.403Z,8.27
2018-09-03T00:06:52.472Z,8.77
2018-09-03T00:09:20.570Z,7.53
2018-09-03T00:11:48.647Z,8.60
2018-09-03T00:14:16.710Z,8.50
2018-09-03T00:16:54.072Z,8.07
2018-09-03T00:19:22.166Z,7.87
2018-09-03T00:21:50.235Z,7.83
2018-09-03T00:24:18.292Z,8.98
2018-09-03T00:26:46.523Z,8.37
2018-09-03T00:29:14.600Z,9.43
2018-09-03T00:31:48.046Z,8.37
2018-09-03T00:34:21.450Z,9.17
2018-09-03T00:36:54.782Z,9.13
2018-09-03T00:39:28.086Z,8.13
2018-09-03T00:42:01.562Z,9.97
2018-09-03T00:44:34.993Z,11.03
2018-09-03T00:47:06.062Z,9.40
2018-09-03T00:49:34.114Z,9.00
2018-09-03T00:52:02.170Z,9.93
2018-09-03T00:54:30.285Z,9.30
2018-09-03T00:57:05.046Z,9.37
2018-09-03T00:59:33.152Z,8.27
2018-09-03T01:02:01.461Z,8.30
2018-09-03T01:04:29.526Z,9.50
2018-09-03T01:06:57.591Z,8.87
2018-09-03T01:09:25.674Z,10.43
2018-09-03T01:11:53.745Z,10.20
2018-09-03T01:14:21.803Z,9.97
2018-09-03T01:16:49.864Z,9.40
2018-09-03T01:19:17.930Z,10.90
2018-09-03T01:21:46.030Z,8.23
2018-09-03T01:24:14.130Z,9.85
2018-09-03T01:26:42.220Z,11.23
2018-09-03T01:29:10.350Z,9.83
2018-09-03T01:31:39.138Z,10.43
2018-09-03T01:34:07.303Z,10.10
2018-09-03T01:36:35.381Z,12.13
2018-09-03T01:39:04.827Z,11.27
2018-09-03T01:41:32.890Z,9.90
2018-09-03T01:44:00.975Z,11.37
2018-09-03T01:46:29.054Z,11.43
2018-09-03T01:48:57.115Z,12.33
2018-09-03T01:51:25.190Z,11.00
2018-09-03T01:53:53.447Z,13.03
2018-09-03T01:56:21.534Z,11.33
2018-09-03T01:58:49.602Z,12.27
2018-09-03T02:01:17.686Z,11.57
2018-09-03T02:03:45.751Z,10.05
2018-09-03T02:06:13.826Z,11.37
2018-09-03T02:08:41.898Z,10.68
2018-09-03T02:11:09.976Z,11.30
2018-09-03T02:13:38.038Z,11.60
2018-09-03T02:16:06.168Z,13.90
2018-09-03T02:18:34.242Z,11.03
2018-09-03T02:21:02.318Z,12.87
2018-09-03T02:23:30.447Z,11.83
2018-09-03T02:25:58.557Z,12.57
2018-09-03T02:28:26.627Z,11.57
2018-09-03T02:30:54.866Z,10.73
2018-09-03T02:33:22.938Z,11.77
2018-09-03T02:35:51.001Z,12.53
2018-09-03T02:38:19.078Z,12.83
2018-09-03T02:40:47.157Z,11.93
2018-09-03T02:43:15.267Z,14.50
2018-09-03T02:45:43.336Z,12.53
2018-09-03T02:48:11.422Z,12.20
2018-09-03T02:50:39.519Z,12.60
2018-09-03T02:53:07.579Z,13.33
2018-09-03T02:55:35.646Z,12.63
2018-09-03T02:58:03.774Z,14.77
2018-09-03T03:00:31.835Z,13.27
2018-09-03T03:02:59.930Z,13.37
2018-09-03T03:05:28.980Z,13.87
2018-09-03T03:07:57.323Z,13.87
2018-09-03T03:10:25.442Z,11.03
2018-09-03T03:12:53.548Z,11.53
2018-09-03T03:15:21.631Z,14.43
2018-09-03T03:17:49.727Z,13.97
2018-09-03T03:20:17.793Z,14.70
2018-09-03T03:22:45.849Z,11.37
2018-09-03T03:25:13.949Z,11.93
2018-09-03T03:27:42.022Z,12.93
2018-09-03T03:30:10.513Z,12.88
2018-09-03T03:32:38.881Z,14.27
2018-09-03T03:35:07.710Z,13.00
2018-09-03T03:37:35.914Z,13.60
2018-09-03T03:40:04.067Z,12.90
2018-09-03T03:42:32.133Z,13.10
2018-09-03T03:45:00.218Z,14.07
2018-09-03T03:47:28.302Z,15.03
2018-09-03T03:49:56.780Z,14.50
2018-09-03T03:52:24.827Z,15.03
2018-09-03T03:54:52.938Z,14.63
2018-09-03T03:57:21.019Z,12.55
2018-09-03T03:59:49.089Z,13.87
2018-09-03T04:02:17.169Z,13.40
2018-09-03T04:04:45.264Z,14.47
2018-09-03T04:07:13.350Z,14.23
2018-09-03T04:09:41.570Z,14.00
2018-09-03T04:12:09.666Z,13.37
2018-09-03T04:14:37.722Z,13.08
2018-09-03T04:17:05.832Z,14.73
2018-09-03T04:19:33.902Z,13.60
2018-09-03T04:22:01.968Z,14.87
2018-09-03T04:24:30.103Z,11.90
2018-09-03T04:26:58.187Z,12.70
2018-09-03T04:29:26.246Z,16.40
2018-09-03T04:31:54.322Z,13.57
2018-09-03T04:34:22.398Z,14.17
2018-09-03T04:36:50.470Z,12.70
2018-09-03T04:39:18.554Z,10.13
2018-09-03T04:41:46.627Z,12.63
2018-09-03T04:44:14.716Z,13.23
2018-09-03T04:46:42.795Z,13.90
2018-09-03T04:49:10.883Z,16.67
2018-09-03T04:51:38.962Z,14.67
2018-09-03T04:54:07.054Z,15.63
2018-09-03T04:56:41.771Z,17.87
2018-09-03T04:59:10.743Z,14.38
2018-09-03T05:01:38.848Z,15.63
2018-09-03T05:04:06.954Z,15.47
2018-09-03T05:06:35.095Z,17.20
2018-09-03T05:09:03.438Z,15.90
2018-09-03T05:11:31.502Z,16.53
2018-09-03T05:13:59.679Z,16.27
2018-09-03T05:16:27.717Z,15.37
2018-09-03T05:18:55.768Z,17.13
2018-09-03T05:21:23.811Z,17.77
2018-09-03T05:23:51.869Z,16.43
2018-09-03T05:26:19.928Z,16.00
2018-09-03T05:28:48.028Z,15.23
2018-09-03T05:31:16.183Z,15.83
2018-09-03T05:33:44.136Z,17.37
2018-09-03T05:36:12.188Z,15.90
2018-09-03T05:41:14.480Z,15.63
2018-09-03T05:43:42.790Z,15.90
2018-09-03T05:46:10.599Z,16.73
2018-09-03T05:48:38.628Z,15.83
2018-09-03T05:51:06.920Z,16.60
2018-09-03T05:53:35.109Z,17.57
2018-09-03T05:56:03.137Z,15.90
2018-09-03T05:58:31.198Z,19.13
2018-09-03T06:00:59.427Z,18.90
2018-09-03T06:03:27.455Z,16.97
2018-09-03T06:05:55.537Z,15.77
2018-09-03T06:08:23.613Z,19.37
2018-09-03T06:10:51.660Z,17.67
2018-09-03T06:13:19.740Z,17.90
2018-09-03T06:15:47.817Z,19.77
2018-09-03T06:18:15.907Z,18.43
2018-09-03T06:20:44.041Z,17.40
2018-09-03T06:23:12.080Z,16.77
2018-09-03T06:25:40.137Z,17.47
2018-09-03T06:28:08.206Z,20.13
2018-09-03T06:30:36.404Z,16.27
2018-09-03T06:33:05.040Z,17.57
2018-09-03T06:35:33.091Z,20.00
2018-09-03T06:38:01.156Z,18.67
2018-09-03T06:40:29.354Z,21.07
2018-09-03T06:42:57.415Z,19.07
2018-09-03T06:45:25.464Z,17.60
2018-09-03T06:47:53.502Z,16.77
2018-09-03T06:50:21.544Z,19.17
2018-09-03T06:52:49.808Z,17.93
2018-09-03T06:55:17.824Z,21.10
2018-09-03T06:57:45.836Z,19.67
2018-09-03T07:00:13.864Z,18.33
2018-09-03T07:02:42.499Z,17.23
2018-09-03T07:05:10.748Z,19.57
2018-09-03T07:07:38.940Z,19.90
2018-09-03T07:10:07.221Z,18.23
2018-09-03T07:12:35.251Z,23.00
2018-09-03T07:15:03.316Z,22.40
2018-09-03T07:17:31.544Z,19.67
2018-09-03T07:19:59.568Z,19.00
2018-09-03T07:22:27.608Z,18.43
2018-09-03T07:24:55.657Z,17.47
2018-09-03T07:27:23.684Z,18.00
2018-09-03T07:29:51.741Z,18.27
2018-09-03T07:32:19.776Z,17.80
2018-09-03T07:34:47.821Z,20.43
2018-09-03T07:37:16.005Z,20.32
2018-09-03T07:39:44.052Z,18.60
2018-09-03T07:42:12.093Z,17.50
2018-09-03T07:44:40.117Z,19.17
2018-09-03T07:47:08.169Z,20.17
2018-09-03T07:49:36.256Z,17.53
2018-09-03T07:52:04.945Z,17.40
2018-09-03T07:54:33.017Z,16.63
2018-09-03T07:57:01.093Z,18.20
2018-09-03T07:59:29.150Z,16.80
2018-09-03T08:01:57.194Z,15.63
2018-09-03T08:04:25.242Z,18.30
2018-09-03T08:06:53.276Z,17.23
2018-09-03T08:09:21.346Z,16.35
2018-09-03T08:11:56.093Z,17.07
2018-09-03T08:14:24.141Z,18.37
2018-09-03T08:16:52.177Z,16.50
2018-09-03T08:19:20.242Z,15.80
2018-09-03T08:21:48.290Z,18.37
2018-09-03T08:24:16.318Z,16.43
2018-09-03T08:26:44.525Z,16.93
2018-09-03T08:29:12.809Z,15.83
2018-09-03T08:31:40.900Z,17.13
2018-09-03T08:34:08.932Z,16.73
2018-09-03T08:36:36.978Z,16.60
2018-09-03T08:39:09.005Z,15.70
2018-09-03T08:41:37.046Z,16.63
2018-09-03T08:44:05.396Z,17.13
2018-09-03T08:46:33.446Z,18.67
2018-09-03T08:49:01.555Z,16.90
2018-09-03T08:51:29.593Z,16.33
2018-09-03T08:53:57.619Z,16.77
2018-09-03T08:56:25.682Z,14.33
2018-09-03T08:58:53.727Z,15.70
2018-09-03T09:01:21.776Z,17.02
2018-09-03T09:03:49.835Z,15.43
2018-09-03T09:06:17.858Z,16.77
2018-09-03T09:08:45.901Z,15.23
2018-09-03T09:11:14.076Z,15.50
2018-09-03T09:13:42.115Z,14.93
2018-09-03T09:16:10.165Z,16.10
2018-09-03T09:18:38.224Z,15.73
2018-09-03T09:21:06.260Z,14.37
2018-09-03T09:23:34.288Z,14.70
2018-09-03T09:26:02.332Z,15.93
2018-09-03T09:28:30.361Z,15.07
2018-09-03T09:30:58.408Z,15.00
2018-09-03T09:33:26.463Z,14.00
2018-09-03T09:35:54.554Z,15.30
2018-09-03T09:38:22.680Z,14.50
2018-09-03T09:40:50.737Z,14.00
2018-09-03T09:43:18.766Z,12.93
2018-09-03T09:45:46.821Z,13.27
2018-09-03T09:48:14.853Z,14.28
2018-09-03T09:50:42.900Z,14.47
2018-09-03T09:53:11.094Z,14.30
2018-09-03T09:55:39.172Z,13.53
2018-09-03T09:58:07.200Z,13.20
2018-09-03T10:00:40.501Z,14.27
2018-09-03T10:03:08.658Z,13.20
2018-09-03T10:05:36.689Z,12.97
2018-09-03T10:08:05.418Z,13.60
2018-09-03T10:10:33.452Z,13.53
2018-09-03T10:13:01.504Z,14.10
2018-09-03T10:15:29.708Z,12.97
2018-09-03T10:17:57.750Z,10.87
2018-09-03T10:20:25.776Z,12.13
2018-09-03T10:22:53.827Z,13.00
2018-09-03T10:25:21.888Z,13.85
2018-09-03T10:27:49.933Z,12.87
2018-09-03T10:30:17.981Z,12.40
2018-09-03T10:32:46.017Z,13.07
2018-09-03T10:35:14.069Z,13.43
2018-09-03T10:37:42.136Z,12.97
2018-09-03T10:40:10.185Z,12.43
2018-09-03T10:42:38.229Z,15.20
2018-09-03T10:45:06.502Z,14.03
2018-09-03T10:47:34.633Z,14.23
2018-09-03T10:50:02.708Z,15.40
2018-09-03T10:52:30.787Z,13.83
2018-09-03T10:54:58.993Z,13.87
2018-09-03T10:57:27.059Z,15.40
2018-09-03T10:59:55.121Z,14.90
2018-09-03T11:02:23.156Z,14.73
2018-09-03T11:04:51.207Z,15.07
2018-09-03T11:07:19.414Z,13.98
2018-09-03T11:09:47.452Z,12.67
2018-09-03T11:12:15.517Z,13.93
2018-09-03T11:14:43.588Z,14.47
2018-09-03T11:17:11.626Z,12.37
2018-09-03T11:19:43.051Z,13.80
2018-09-03T11:22:11.081Z,13.27
2018-09-03T11:24:39.108Z,13.57
2018-09-03T11:27:07.381Z,13.37
2018-09-03T11:29:35.464Z,13.83
2018-09-03T11:32:03.774Z,15.23
2018-09-03T11:34:31.858Z,15.20
2018-09-03T11:36:59.896Z,14.30
2018-09-03T11:39:27.941Z,12.40
2018-09-03T11:41:55.989Z,14.57
2018-09-03T11:44:24.177Z,13.87
2018-09-03T11:46:52.228Z,16.00
2018-09-03T11:49:20.300Z,15.85
2018-09-03T11:51:48.356Z,15.23
2018-09-03T11:54:16.405Z,15.72
2018-09-03T11:56:44.448Z,14.87
2018-09-03T11:59:12.637Z,15.53
2018-09-03T12:01:40.681Z,15.67
2018-09-03T12:04:08.721Z,15.07
2018-09-03T12:06:36.815Z,15.63
2018-09-03T12:09:07.446Z,15.70
2018-09-03T12:11:35.538Z,15.00
2018-09-03T12:14:10.728Z,15.55
2018-09-03T12:16:38.921Z,14.43
2018-09-03T12:19:06.965Z,21.30
2018-09-03T12:21:35.053Z,15.30
2018-09-03T12:24:03.150Z,15.60
2018-09-03T12:26:31.180Z,17.73
2018-09-03T12:28:59.373Z,15.10
2018-09-03T12:31:27.463Z,18.03
2018-09-03T12:33:55.441Z,14.80
2018-09-03T12:36:23.485Z,15.63
2018-09-03T12:38:51.508Z,16.57
2018-09-03T12:41:19.550Z,16.20
2018-09-03T12:43:47.597Z,16.17
2018-09-03T12:46:15.675Z,16.23
2018-09-03T12:48:43.697Z,14.97
2018-09-03T12:51:11.779Z,16.80
2018-09-03T12:53:39.811Z,27.43
2018-09-03T12:56:07.859Z,18.53
2018-09-03T12:58:35.926Z,17.82
2018-09-03T13:01:04.001Z,15.35
2018-09-03T13:03:32.048Z,18.20
2018-09-03T13:06:00.072Z,18.37
2018-09-03T13:08:28.120Z,16.40
2018-09-03T13:10:56.155Z,14.63
2018-09-03T13:13:24.218Z,19.70
2018-09-03T13:15:52.256Z,19.17
2018-09-03T13:18:20.408Z,17.10
2018-09-03T13:20:48.598Z,19.20
2018-09-03T13:23:16.641Z,18.32
2018-09-03T13:25:44.672Z,17.67
2018-09-03T13:28:12.884Z,17.57
2018-09-03T13:30:40.971Z,20.33
2018-09-03T13:33:09.014Z,17.83
2018-09-03T13:35:37.193Z,17.97
2018-09-03T13:38:05.301Z,19.67
2018-09-03T13:40:33.348Z,17.90
2018-09-03T13:43:01.414Z,19.43
2018-09-03T13:45:29.444Z,20.67
2018-09-03T13:47:57.548Z,19.47
2018-09-03T13:50:25.601Z,20.03
2018-09-03T13:52:53.672Z,19.75
2018-09-03T13:55:21.869Z,17.25
2018-09-03T13:57:49.888Z,17.87
2018-09-03T14:00:17.944Z,22.03
2018-09-03T14:02:45.997Z,21.23
2018-09-03T14:05:14.089Z,20.08
2018-09-03T14:07:42.144Z,20.40
2018-09-03T14:10:10.190Z,19.93
2018-09-03T14:12:38.229Z,19.53
2018-09-03T14:15:06.447Z,22.03
2018-09-03T14:17:34.553Z,21.03
2018-09-03T14:20:02.707Z,22.63
2018-09-03T14:22:30.717Z,22.23
2018-09-03T14:24:58.869Z,21.07
2018-09-03T14:27:26.900Z,21.87
2018-09-03T14:29:54.976Z,22.57
2018-09-03T14:32:23.196Z,21.80
2018-09-03T14:34:51.307Z,19.97
2018-09-03T14:37:19.383Z,22.30
2018-09-03T14:39:47.416Z,19.93
2018-09-03T14:42:15.605Z,20.05
2018-09-03T14:44:43.637Z,21.20
2018-09-03T14:47:11.693Z,22.23
2018-09-03T14:49:39.855Z,20.30
2018-09-03T14:52:07.866Z,20.87
2018-09-03T14:54:35.892Z,19.67
2018-09-03T14:57:04.481Z,22.47
2018-09-03T14:59:33.096Z,21.57
2018-09-03T15:02:01.200Z,20.77
2018-09-03T15:04:29.259Z,20.80
2018-09-03T15:06:57.309Z,20.77
2018-09-03T15:09:25.356Z,21.87
2018-09-03T15:11:53.400Z,21.20
2018-09-03T15:14:21.472Z,21.00
2018-09-03T15:16:49.521Z,22.70
2018-09-03T15:19:17.560Z,20.80
2018-09-03T15:21:45.578Z,20.57
2018-09-03T15:24:13.622Z,22.22
2018-09-03T15:26:41.736Z,21.47
2018-09-03T15:29:09.714Z,23.33
2018-09-03T15:31:37.764Z,21.13
2018-09-03T15:34:05.941Z,21.07
2018-09-03T15:36:34.041Z,20.87
2018-09-03T15:39:02.038Z,19.83
2018-09-03T15:41:30.083Z,20.60
2018-09-03T15:43:58.129Z,21.20
2018-09-03T15:46:26.200Z,17.97
2018-09-03T15:48:54.378Z,20.17
2018-09-03T15:51:22.348Z,21.53
2018-09-03T15:53:50.596Z,22.37
2018-09-03T15:56:18.595Z,20.67
2018-09-03T15:58:46.644Z,22.30
2018-09-03T16:01:14.688Z,23.20
2018-09-03T16:03:42.756Z,20.43
2018-09-03T16:06:10.780Z,21.30
2018-09-03T16:08:38.840Z,22.10
2018-09-03T16:11:07.064Z,22.07
2018-09-03T16:13:35.092Z,21.53
2018-09-03T16:16:03.129Z,20.13
2018-09-03T16:18:31.233Z,19.10
2018-09-03T16:20:59.324Z,21.13
2018-09-03T16:23:27.327Z,21.83
2018-09-03T16:25:55.359Z,20.77
2018-09-03T16:28:23.424Z,21.10
2018-09-03T16:30:51.475Z,20.70
2018-09-03T16:33:19.568Z,21.33
2018-09-03T16:35:47.800Z,20.77
2018-09-03T16:38:15.812Z,20.63
2018-09-03T16:40:43.857Z,20.67
2018-09-03T16:43:11.922Z,20.53
2018-09-03T16:45:39.991Z,21.23
2018-09-03T16:48:08.088Z,21.63
2018-09-03T16:50:36.210Z,22.00
2018-09-03T16:53:04.772Z,22.30
2018-09-03T16:55:32.836Z,21.13
2018-09-03T16:58:00.885Z,20.57
2018-09-03T17:00:28.926Z,22.90
2018-09-03T17:02:57.147Z,21.20
2018-09-03T17:05:25.188Z,21.10
2018-09-03T17:07:53.283Z,20.90
2018-09-03T17:10:21.285Z,19.07
2018-09-03T17:12:49.397Z,20.57
2018-09-03T17:15:17.425Z,18.62
2018-09-03T17:17:45.637Z,21.03
2018-09-03T17:20:13.748Z,20.20
2018-09-03T17:23:01.972Z,22.57
2018-09-03T17:25:30.037Z,21.73
2018-09-03T17:27:58.089Z,20.33
2018-09-03T17:30:26.286Z,24.43
2018-09-03T17:32:54.331Z,22.70
2018-09-03T17:35:22.377Z,21.15
2018-09-03T17:37:50.421Z,20.10
2018-09-03T17:40:18.561Z,22.15
2018-09-03T17:42:46.609Z,22.33
2018-09-03T17:45:14.676Z,22.22
2018-09-03T17:47:42.739Z,21.30
2018-09-03T17:50:10.935Z,19.63
2018-09-03T17:52:38.992Z,25.10
2018-09-03T17:55:07.974Z,21.67
2018-09-03T17:57:36.049Z,23.57
2018-09-03T18:00:04.147Z,24.60
2018-09-03T18:02:32.233Z,23.60
2018-09-03T18:05:00.317Z,21.70
2018-09-03T18:07:28.394Z,21.67
2018-09-03T18:09:56.511Z,22.60
2018-09-03T18:12:24.569Z,19.73
2018-09-03T18:14:52.612Z,22.13
2018-09-03T18:17:20.780Z,20.43
2018-09-03T18:19:48.847Z,21.67
2018-09-03T18:22:16.927Z,21.40
2018-09-03T18:24:44.970Z,21.30
2018-09-03T18:27:13.039Z,21.07
2018-09-03T18:29:41.888Z,23.10
2018-09-03T18:32:09.965Z,22.55
2018-09-03T18:34:38.036Z,27.40
2018-09-03T18:37:06.204Z,22.73
2018-09-03T18:39:34.240Z,22.97
2018-09-03T18:42:02.405Z,25.97
2018-09-03T18:44:30.463Z,22.87
2018-09-03T18:46:58.491Z,21.97
2018-09-03T18:49:26.534Z,23.30
2018-09-03T18:51:54.608Z,25.97
2018-09-03T18:54:22.716Z,25.17
2018-09-03T18:56:50.780Z,27.00
2018-09-03T18:59:18.837Z,29.75
2018-09-03T19:01:46.878Z,29.00
2018-09-03T19:04:15.096Z,29.00
2018-09-03T19:06:43.168Z,28.90
2018-09-03T19:09:11.245Z,26.80
2018-09-03T19:11:39.669Z,25.90
2018-09-03T19:14:08.048Z,25.53
2018-09-03T19:16:36.121Z,28.97
2018-09-03T19:19:04.795Z,26.23
2018-09-03T19:21:32.844Z,27.83
2018-09-03T19:24:01.072Z,26.70
2018-09-03T19:26:29.197Z,29.90
2018-09-03T19:28:57.248Z,33.03
2018-09-03T19:31:25.320Z,31.57
2018-09-03T19:33:53.417Z,31.53
2018-09-03T19:36:21.528Z,29.10
2018-09-03T19:38:49.601Z,29.87
2018-09-03T19:41:17.705Z,28.23
2018-09-03T19:43:45.753Z,25.40
2018-09-03T19:46:13.820Z,27.62
2018-09-03T19:48:43.041Z,27.83
2018-09-03T19:51:10.971Z,32.60
2018-09-03T19:53:39.040Z,36.10
2018-09-03T19:56:07.263Z,34.73
2018-09-03T19:58:35.312Z,30.07
2018-09-03T20:01:03.388Z,26.57
2018-09-03T20:03:31.440Z,29.90
2018-09-03T20:05:59.611Z,29.40
2018-09-03T20:08:27.710Z,28.63
2018-09-03T20:10:55.696Z,29.40
2018-09-03T20:13:23.766Z,28.60
2018-09-03T20:15:51.814Z,27.43
2018-09-03T20:18:19.901Z,29.83
2018-09-03T20:20:47.948Z,35.23
2018-09-03T20:23:16.057Z,36.83
2018-09-03T20:25:44.241Z,30.10
2018-09-03T20:28:12.369Z,30.40
2018-09-03T20:30:40.518Z,30.63
2018-09-03T20:33:08.500Z,28.63
2018-09-03T20:35:36.575Z,26.57
2018-09-03T20:38:04.948Z,29.00
2018-09-03T20:40:33.031Z,28.03
2018-09-03T20:43:01.200Z,26.30
2018-09-03T20:45:29.166Z,30.57
2018-09-03T20:47:57.280Z,29.27
2018-09-03T20:50:25.354Z,32.60
2018-09-03T20:52:53.387Z,30.77
2018-09-03T20:55:21.508Z,33.18
2018-09-03T20:57:49.607Z,28.90
2018-09-03T21:00:17.677Z,29.10
2018-09-03T21:02:45.717Z,29.47
2018-09-03T21:05:13.767Z,30.30
2018-09-03T21:07:42.357Z,35.50
2018-09-03T21:10:10.397Z,32.45
2018-09-03T21:12:38.627Z,37.80
2018-09-03T21:15:06.700Z,29.13
2018-09-03T21:17:34.733Z,28.83
2018-09-03T21:20:02.787Z,29.57
2018-09-03T21:22:30.820Z,31.23
2018-09-03T21:24:59.022Z,33.27
2018-09-03T21:27:27.070Z,29.77
2018-09-03T21:29:55.119Z,29.30
2018-09-03T21:32:23.196Z,30.53
2018-09-03T21:34:51.227Z,29.00
2018-09-03T21:37:19.250Z,29.77
2018-09-03T21:39:47.345Z,30.40
2018-09-03T21:42:15.408Z,29.27
2018-09-03T21:44:43.466Z,29.07
2018-09-03T21:47:11.520Z,33.63
2018-09-03T21:49:39.572Z,28.97
2018-09-03T21:52:07.634Z,28.47
2018-09-03T21:54:35.692Z,31.17
2018-09-03T21:57:04.716Z,30.70
2018-09-03T21:59:32.756Z,26.93
2018-09-03T22:02:00.834Z,29.97
2018-09-03T22:04:28.876Z,34.13
2018-09-03T22:06:56.941Z,33.70
2018-09-03T22:09:25.014Z,36.73
2018-09-03T22:11:53.053Z,38.07
2018-09-03T22:14:21.109Z,41.73
2018-09-03T22:16:49.164Z,40.80
2018-09-03T22:19:17.224Z,45.93
2018-09-03T22:21:45.430Z,53.20
2018-09-03T22:24:13.487Z,47.50
2018-09-03T22:26:41.590Z,52.00
2018-09-03T22:29:09.633Z,59.90
2018-09-03T22:31:37.703Z,50.10
2018-09-03T22:34:05.772Z,65.85
2018-09-03T22:36:33.820Z,60.43
2018-09-03T22:39:02.018Z,65.67
2018-09-03T22:41:30.077Z,59.10
2018-09-03T22:43:58.111Z,51.57
2018-09-03T22:46:26.329Z,43.57
2018-09-03T22:48:54.372Z,41.17
2018-09-03T22:51:22.464Z,48.20
2018-09-03T22:53:50.508Z,43.57
2018-09-03T22:56:18.559Z,42.45
2018-09-03T22:58:46.599Z,45.50
2018-09-03T23:01:15.660Z,49.30
2018-09-03T23:03:43.724Z,43.90
2018-09-03T23:06:11.961Z,41.27
2018-09-03T23:08:39.996Z,28.80
2018-09-03T23:11:08.077Z,17.67
2018-09-03T23:13:36.122Z,15.00
2018-09-03T23:16:04.972Z,12.30
2018-09-03T23:18:33.036Z,11.77
2018-09-03T23:21:01.099Z,10.90
2018-09-03T23:23:29.137Z,11.23
2018-09-03T23:25:57.179Z,10.67
2018-09-03T23:28:25.385Z,10.40
2018-09-03T23:30:53.441Z,9.10
2018-09-03T23:33:21.496Z,8.60
2018-09-03T23:35:49.546Z,8.03
2018-09-03T23:38:17.588Z,8.43
2018-09-03T23:40:45.644Z,7.67
2018-09-03T23:43:13.700Z,7.10
2018-09-03T23:45:41.772Z,7.27
2018-09-03T23:48:09.818Z,7.22
2018-09-03T23:50:37.865Z,7.10
2018-09-03T23:53:05.916Z,7.90
2018-09-03T23:55:33.944Z,5.37
2018-09-03T23:58:02.145Z,6.40
